Time;durP1;ratioP1;P1;durP2;ratioP2;P2;SDS_P1;SDS_P2;PMS_P1;PMS_P2;Temp;Humidity;BMP_temperature;BMP_pressure;BME280_temperature;BME280_humidity;BME280_pressure;Samples;Min_cycle;Max_cycle;Signal;HPM_P1;HPM_P2
2023/03/13 00:02:45;;;;;;;9.98;3.55;;;;;;;10.00;72.47;99454.38;10400495;28;20173;-69
2023/03/13 00:07:47;;;;;;;12.45;3.92;;;;;;;10.01;72.76;99434.78;10412192;28;20588;-70
2023/03/13 00:12:48;;;;;;;13.07;3.90;;;;;;;9.97;72.57;99430.72;10413872;28;20064;-70
2023/03/13 00:17:49;;;;;;;9.38;3.50;;;;;;;10.02;73.00;99439.13;10411390;28;20049;-69
2023/03/13 00:22:51;;;;;;;12.55;3.05;;;;;;;10.02;72.73;99418.69;10413521;28;20486;-71
2023/03/13 00:27:52;;;;;;;11.43;3.83;;;;;;;10.00;72.63;99412.69;10411516;28;20696;-72
2023/03/13 00:32:53;;;;;;;10.63;3.60;;;;;;;10.01;72.83;99424.13;10400954;28;20155;-73
2023/03/13 00:37:55;;;;;;;13.93;4.30;;;;;;;10.01;72.76;99413.50;10412949;28;20044;-73
2023/03/13 00:42:57;;;;;;;9.05;3.88;;;;;;;10.01;72.68;99410.84;10398016;28;20136;-70
2023/03/13 00:47:58;;;;;;;9.98;3.47;;;;;;;9.99;72.76;99403.00;10416684;28;20057;-72
2023/03/13 00:52:59;;;;;;;9.20;3.67;;;;;;;10.02;72.72;99400.06;10415747;28;20510;-72
2023/03/13 00:58:01;;;;;;;13.98;3.58;;;;;;;10.01;72.44;99378.94;10420905;28;20487;-73
2023/03/13 01:03:02;;;;;;;12.55;3.50;;;;;;;10.05;72.40;99365.22;10431341;28;20044;-71
2023/03/13 01:08:04;;;;;;;10.13;3.35;;;;;;;10.05;72.63;99359.91;10427440;28;20049;-71
2023/03/13 01:13:06;;;;;;;8.43;3.03;;;;;;;10.04;72.94;99354.72;10428270;28;20055;-70
2023/03/13 01:18:07;;;;;;;10.15;3.13;;;;;;;10.03;72.72;99345.91;10416828;28;20052;-70
2023/03/13 01:23:09;;;;;;;10.25;3.05;;;;;;;10.06;72.69;99339.50;10414975;28;20147;-70
2023/03/13 01:28:11;;;;;;;12.68;3.97;;;;;;;10.06;72.64;99326.19;10419932;28;20130;-75
2023/03/13 01:33:13;;;;;;;11.57;4.07;;;;;;;10.10;72.65;99335.53;10422525;28;20075;-72
2023/03/13 01:38:14;;;;;;;10.73;2.67;;;;;;;10.12;72.34;99316.78;10426025;28;20268;-73
2023/03/13 01:43:22;;;;;;;7.68;2.88;;;;;;;10.21;72.44;99315.94;10403180;28;20071;-70
2023/03/13 01:48:41;;;;;;;10.13;3.15;;;;;;;10.22;72.50;99299.84;10415211;28;20048;-69
2023/03/13 01:53:46;;;;;;;12.90;4.07;;;;;;;10.20;72.36;99288.50;10394819;28;20051;-69
2023/03/13 01:58:51;;;;;;;7.47;2.90;;;;;;;10.26;72.14;99273.78;10386593;28;20574;-70
2023/03/13 02:03:53;;;;;;;6.28;2.65;;;;;;;10.29;72.22;99260.19;10385998;28;20198;-70
2023/03/13 02:09:03;;;;;;;8.88;2.72;;;;;;;10.35;73.89;99264.13;10410358;28;20052;-71
2023/03/13 02:14:06;;;;;;;12.45;3.33;;;;;;;10.34;74.80;99257.13;10409207;28;20052;-69
2023/03/13 02:19:18;;;;;;;13.60;3.47;;;;;;;10.34;75.63;99255.28;10389247;28;20053;-71
2023/03/13 02:24:39;;;;;;;16.50;3.97;;;;;;;10.38;77.32;99258.50;10405595;28;20272;-71
2023/03/13 02:29:41;;;;;;;8.27;2.38;;;;;;;10.35;77.84;99241.00;10406198;28;20140;-70
2023/03/13 02:34:45;;;;;;;10.10;2.95;;;;;;;10.34;79.53;99235.84;10405406;28;20059;-70
2023/03/13 02:39:50;;;;;;;7.40;2.55;;;;;;;10.32;79.42;99217.34;10405768;28;20055;-73
2023/03/13 02:44:51;;;;;;;;;;;;;;;10.39;79.52;99209.66;10406984;28;20095;-72
2023/03/13 02:49:53;;;;;;;10.45;2.58;;;;;;;10.33;79.60;99197.78;10403846;28;19943;-70
2023/03/13 02:55:00;;;;;;;6.88;3.50;;;;;;;10.37;79.56;99196.50;10388851;28;20047;-70
2023/03/13 03:00:05;;;;;;;9.00;2.80;;;;;;;10.43;79.75;99187.91;10402923;28;20049;-72
2023/03/13 03:05:07;;;;;;;6.40;2.30;;;;;;;10.43;80.09;99176.41;10398258;28;20174;-71
2023/03/13 03:10:09;;;;;;;4.38;2.05;;;;;;;10.35;81.83;99163.88;10414773;28;20598;-70
2023/03/13 03:15:11;;;;;;;5.90;2.45;;;;;;;10.25;82.55;99147.09;10415255;28;20053;-72
2023/03/13 03:20:13;;;;;;;8.82;2.35;;;;;;;10.30;82.44;99134.19;10394127;28;20107;-71
2023/03/13 03:25:14;;;;;;;7.90;2.35;;;;;;;10.26;82.28;99130.97;10411215;28;20057;-71
2023/03/13 03:30:16;;;;;;;9.85;3.63;;;;;;;10.29;83.41;99142.34;10414596;28;20077;-73
2023/03/13 03:35:18;;;;;;;7.05;2.47;;;;;;;10.24;83.92;99148.09;10412952;28;20075;-72
2023/03/13 03:40:20;;;;;;;6.88;2.45;;;;;;;10.27;85.42;99151.28;10393976;28;20064;-72
2023/03/13 03:45:21;;;;;;;11.15;2.15;;;;;;;10.24;86.18;99151.59;10412065;28;20052;-72
2023/03/13 03:50:23;;;;;;;8.15;3.25;;;;;;;10.08;88.08;99143.41;10399209;28;20112;-69
2023/03/13 03:55:24;;;;;;;8.35;3.05;;;;;;;10.07;89.89;99133.75;10409616;28;20077;-70
2023/03/13 04:00:26;;;;;;;6.97;2.38;;;;;;;10.04;90.78;99118.09;10413375;28;20056;-70
2023/03/13 04:05:28;;;;;;;7.55;2.72;;;;;;;10.13;91.35;99116.38;10412705;28;20052;-70
2023/03/13 04:10:29;;;;;;;5.10;2.25;;;;;;;10.02;91.61;99120.06;10427694;28;20044;-70
2023/03/13 04:15:31;;;;;;;8.13;2.50;;;;;;;9.96;92.77;99118.00;10424953;28;20073;-71
2023/03/13 04:20:33;;;;;;;7.80;2.03;;;;;;;9.91;93.38;99119.28;10412838;28;20059;-71
2023/03/13 04:25:34;;;;;;;6.43;2.53;;;;;;;9.82;94.56;99098.91;10409314;28;20052;-72
2023/03/13 04:30:36;;;;;;;7.80;2.65;;;;;;;9.81;94.81;99088.41;10390689;28;20210;-70
2023/03/13 04:35:37;;;;;;;8.82;2.15;;;;;;;9.84;95.29;99096.94;10391641;28;20548;-70
2023/03/13 04:40:39;;;;;;;8.90;3.03;;;;;;;9.88;95.07;99093.00;10409387;28;20053;-71
2023/03/13 04:45:40;;;;;;;7.28;2.67;;;;;;;9.88;94.80;99077.03;10409205;28;20136;-70
2023/03/13 04:50:41;;;;;;;8.48;2.40;;;;;;;9.92;95.93;99077.56;10410737;28;20077;-71
2023/03/13 04:55:43;;;;;;;9.80;2.75;;;;;;;9.82;98.40;99067.00;10408944;28;20583;-70
2023/03/13 05:00:45;;;;;;;7.28;2.00;;;;;;;9.78;99.89;99055.00;10391228;28;20076;-70
2023/03/13 05:05:46;;;;;;;7.97;2.40;;;;;;;9.81;100.00;99059.19;10398044;28;20049;-73
2023/03/13 05:10:48;;;;;;;6.10;2.10;;;;;;;9.92;100.00;99056.31;10409687;28;20068;-73
2023/03/13 05:15:49;;;;;;;6.90;2.83;;;;;;;9.87;100.00;99038.16;10403332;28;20095;-70
2023/03/13 05:20:51;;;;;;;4.78;2.00;;;;;;;9.94;100.00;99035.75;10406128;28;20061;-71
2023/03/13 05:25:52;;;;;;;4.47;1.75;;;;;;;9.98;100.00;99013.19;10404539;28;20056;-71
2023/03/13 05:30:54;;;;;;;5.50;1.90;;;;;;;9.98;100.00;99013.19;10363449;28;20477;-73
2023/03/13 05:35:55;;;;;;;8.32;2.03;;;;;;;9.99;100.00;98990.09;10383639;28;20084;-70
2023/03/13 05:40:57;;;;;;;3.22;2.00;;;;;;;10.07;100.00;98980.41;10377343;28;20156;-70
2023/03/13 05:45:58;;;;;;;3.58;1.60;;;;;;;10.08;100.00;98982.03;10364134;28;20057;-72
2023/03/13 05:51:00;;;;;;;5.13;2.83;;;;;;;10.15;100.00;99024.84;10379869;28;20534;-70
2023/03/13 05:56:01;;;;;;;6.95;2.20;;;;;;;10.18;100.00;99021.88;10378921;28;20135;-72
2023/03/13 06:01:11;;;;;;;6.10;2.20;;;;;;;10.20;100.00;99011.91;10383200;28;20045;-70
2023/03/13 06:06:12;;;;;;;7.65;2.25;;;;;;;10.25;100.00;98992.84;10378302;28;20048;-71
2023/03/13 06:11:13;;;;;;;5.05;2.25;;;;;;;10.24;100.00;98997.34;10375880;28;20049;-72
2023/03/13 06:16:15;;;;;;;5.18;2.00;;;;;;;10.25;100.00;98972.41;10377097;28;20773;-69
2023/03/13 06:21:16;;;;;;;3.95;1.77;;;;;;;10.34;100.00;98977.81;10375234;28;20053;-71
2023/03/13 06:26:17;;;;;;;4.28;1.80;;;;;;;10.37;100.00;98973.06;10377686;28;20162;-69
2023/03/13 06:31:19;;;;;;;4.57;1.92;;;;;;;10.41;100.00;98984.22;10374957;28;20053;-72
2023/03/13 06:36:25;;;;;;;3.05;1.70;;;;;;;10.48;100.00;98995.06;10381297;28;20057;-72
2023/03/13 06:41:26;;;;;;;7.57;2.63;;;;;;;10.53;100.00;99004.25;10378245;28;20875;-73
2023/03/13 06:46:28;;;;;;;2.63;1.70;;;;;;;10.55;100.00;98999.63;10382712;28;20084;-70
2023/03/13 06:51:29;;;;;;;5.50;2.03;;;;;;;10.63;100.00;99013.97;10383130;28;20455;-71
2023/03/13 06:56:31;;;;;;;2.28;1.30;;;;;;;10.67;100.00;99008.19;10379800;28;20053;-72
2023/03/13 07:01:32;;;;;;;3.55;1.58;;;;;;;10.70;100.00;98980.44;10363015;28;20186;-70
2023/03/13 07:06:34;;;;;;;4.50;1.52;;;;;;;10.83;100.00;98970.22;10382381;28;20080;-71
2023/03/13 07:11:36;;;;;;;3.10;2.03;;;;;;;10.88;100.00;98983.06;10358867;28;20579;-71
2023/03/13 07:16:38;;;;;;;4.80;1.88;;;;;;;10.92;100.00;98987.91;10377108;28;20060;-70
2023/03/13 07:21:40;;;;;;;2.95;1.50;;;;;;;10.92;100.00;98969.25;10376221;28;20101;-70
2023/03/13 07:26:41;;;;;;;1.98;1.20;;;;;;;11.03;100.00;98975.31;10368607;28;20065;-70
2023/03/13 07:32:02;;;;;;;4.88;1.60;;;;;;;11.08;100.00;98979.19;10377892;28;20144;-72
2023/03/13 07:37:03;;;;;;;2.00;1.30;;;;;;;11.17;100.00;98977.41;10362448;28;20048;-74
2023/03/13 07:42:05;;;;;;;2.97;1.58;;;;;;;11.27;100.00;98972.81;10384976;28;20821;-73
2023/03/13 07:47:06;;;;;;;3.17;1.20;;;;;;;11.35;100.00;98972.00;10365094;28;20399;-75
2023/03/13 07:52:08;;;;;;;2.53;1.23;;;;;;;11.40;100.00;98955.53;10386591;28;20052;-70
2023/03/13 07:57:10;;;;;;;3.90;1.05;;;;;;;11.52;100.00;98964.06;10387023;28;20044;-73
2023/03/13 08:02:15;;;;;;;3.95;1.35;;;;;;;11.56;100.00;98965.41;10388816;28;20214;-73
2023/03/13 08:07:17;;;;;;;2.83;0.88;;;;;;;11.58;100.00;98958.91;10368125;28;20093;-72
2023/03/13 08:12:18;;;;;;;2.60;1.05;;;;;;;11.71;100.00;98962.94;10389706;28;20044;-72
2023/03/13 08:17:20;;;;;;;3.20;1.23;;;;;;;11.76;100.00;98965.97;10390713;28;20212;-72
2023/03/13 08:22:21;;;;;;;1.10;0.73;;;;;;;11.79;100.00;98958.47;10384378;28;20535;-73
2023/03/13 08:27:22;;;;;;;2.50;1.20;;;;;;;11.80;100.00;98957.50;10387498;28;20618;-72
2023/03/13 08:32:24;;;;;;;2.58;1.20;;;;;;;11.92;100.00;98946.50;10385036;28;20049;-73
2023/03/13 08:37:25;;;;;;;3.13;1.95;;;;;;;12.10;100.00;98949.91;10385442;28;20045;-72
2023/03/13 08:42:27;;;;;;;3.03;1.95;;;;;;;12.28;99.80;98947.09;10385021;28;20053;-72
2023/03/13 08:47:28;;;;;;;2.20;2.00;;;;;;;12.48;98.85;98944.91;10382136;28;20472;-72
2023/03/13 08:52:29;;;;;;;2.85;2.40;;;;;;;12.60;96.95;98942.72;10383182;28;20585;-69
2023/03/13 08:57:31;;;;;;;3.47;2.35;;;;;;;12.66;96.31;98947.38;10385731;28;20637;-71
2023/03/13 09:02:32;;;;;;;3.67;1.95;;;;;;;12.75;94.97;98950.06;10378106;28;20124;-69
2023/03/13 09:07:34;;;;;;;4.22;1.98;;;;;;;12.78;94.97;98969.22;10393021;28;20130;-71
2023/03/13 09:12:35;;;;;;;3.50;2.28;;;;;;;12.81;95.32;98944.88;10396293;28;20048;-71
2023/03/13 09:17:37;;;;;;;2.30;2.10;;;;;;;12.93;94.83;98948.00;10389710;28;20046;-71
2023/03/13 09:22:38;;;;;;;3.92;2.40;;;;;;;12.96;93.80;98923.63;10402348;28;20226;-72
2023/03/13 09:27:40;;;;;;;2.10;1.90;;;;;;;13.10;93.37;98943.44;10374752;28;20128;-69
2023/03/13 09:32:41;;;;;;;3.13;1.88;;;;;;;13.08;92.65;98940.94;10404901;28;20101;-70
2023/03/13 09:37:43;;;;;;;3.80;1.73;;;;;;;13.25;92.17;98930.22;10406112;28;20507;-71
2023/03/13 09:42:50;;;;;;;3.30;1.50;;;;;;;13.29;91.35;98920.84;10401499;28;20045;-70
2023/03/13 09:48:01;;;;;;;1.60;1.35;;;;;;;13.30;91.00;98911.84;10403603;28;20068;-70
2023/03/13 09:53:12;;;;;;;1.63;1.52;;;;;;;13.29;90.81;98888.78;10399288;28;20096;-72
2023/03/13 09:58:20;;;;;;;2.03;1.75;;;;;;;13.41;90.36;98898.09;10388418;28;20057;-73
2023/03/13 10:03:30;;;;;;;3.15;1.67;;;;;;;13.48;89.54;98918.78;10386318;28;21441;-71
2023/03/13 10:08:34;;;;;;;1.95;1.50;;;;;;;13.55;89.30;98919.75;10393628;28;20073;-70
2023/03/13 10:13:53;;;;;;;3.00;1.63;;;;;;;13.56;88.32;98922.25;10390869;28;20055;-70
2023/03/13 10:18:58;;;;;;;3.05;1.95;;;;;;;13.67;87.35;98917.50;10386785;28;20295;-70
2023/03/13 10:24:21;;;;;;;3.17;1.90;;;;;;;14.24;84.85;98905.56;10386240;28;20053;-70
2023/03/13 10:29:28;;;;;;;3.00;1.95;;;;;;;14.31;83.07;98915.38;10382675;28;20605;-71
2023/03/13 10:34:44;;;;;;;4.45;2.35;;;;;;;14.02;84.51;98902.75;10386375;28;20132;-69
2023/03/13 10:39:45;;;;;;;4.05;2.25;;;;;;;13.83;85.08;98901.38;10382219;28;20083;-69
2023/03/13 10:44:47;;;;;;;2.42;2.22;;;;;;;13.75;85.86;98904.94;10381378;28;20056;-69
2023/03/13 10:49:51;;;;;;;2.40;1.83;;;;;;;13.81;86.18;98894.53;10386454;28;20059;-69
2023/03/13 10:54:59;;;;;;;3.75;2.28;;;;;;;13.95;85.40;98893.75;10381029;28;20410;-68
2023/03/13 11:00:27;;;;;;;5.47;2.08;;;;;;;14.11;84.42;98903.50;10383737;28;20132;-70
2023/03/13 11:05:41;;;;;;;2.58;2.03;;;;;;;14.19;84.07;98878.53;10384385;28;21611;-68
2023/03/13 11:10:53;;;;;;;2.10;1.90;;;;;;;14.22;83.41;98886.19;10385718;28;20041;-72
2023/03/13 11:15:59;;;;;;;3.08;1.90;;;;;;;14.25;83.14;98872.47;10374222;28;20060;-70
2023/03/13 11:21:02;;;;;;;5.47;2.20;;;;;;;14.24;83.13;98870.78;10376921;28;20226;-69
2023/03/13 11:26:33;;;;;;;3.85;2.55;;;;;;;14.22;82.41;98870.16;10389912;28;20065;-69
2023/03/13 11:31:39;;;;;;;4.38;2.40;;;;;;;14.29;82.12;98860.34;10386021;28;20045;-69
2023/03/13 11:37:06;;;;;;;3.67;2.60;;;;;;;14.26;81.54;98844.66;10388716;28;20051;-70
2023/03/13 11:42:35;;;;;;;3.50;1.77;;;;;;;14.27;80.05;98849.00;10391420;28;20511;-69
2023/03/13 11:47:55;;;;;;;4.75;1.85;;;;;;;14.38;79.54;98850.41;10386577;28;20060;-71
2023/03/13 11:53:15;;;;;;;2.33;1.70;;;;;;;14.42;78.98;98831.13;10385854;28;20033;-69
2023/03/13 11:58:25;;;;;;;1.88;1.50;;;;;;;14.40;78.27;98813.59;10385683;28;20053;-70
2023/03/13 12:03:39;;;;;;;6.10;2.15;;;;;;;14.45;77.69;98806.66;10385786;28;20483;-70
2023/03/13 12:08:54;;;;;;;5.63;1.73;;;;;;;14.79;76.71;98783.88;10390038;28;20054;-70
2023/03/13 12:14:20;;;;;;;2.85;1.50;;;;;;;14.82;76.78;98778.16;10384906;28;20179;-71
2023/03/13 12:19:57;;;;;;;3.40;1.40;;;;;;;15.43;73.40;98762.72;10390385;28;20570;-69
2023/03/13 12:25:20;;;;;;;4.40;1.52;;;;;;;15.37;73.06;98742.88;10373299;28;20048;-71
2023/03/13 12:30:30;;;;;;;2.10;1.40;;;;;;;15.11;74.09;98733.53;10395194;28;20049;-70
2023/03/13 12:35:34;;;;;;;3.95;2.40;;;;;;;15.00;74.83;98737.53;10373906;28;20045;-70
2023/03/13 12:41:00;;;;;;;2.63;1.80;;;;;;;15.03;75.93;98731.00;10365847;28;20103;-69
2023/03/13 12:46:21;;;;;;;4.15;1.42;;;;;;;14.99;77.84;98714.44;10367280;28;20152;-71
2023/03/13 12:51:35;;;;;;;3.30;2.03;;;;;;;14.94;79.08;98716.06;10378473;28;20045;-70
2023/03/13 12:56:42;;;;;;;4.33;2.20;;;;;;;14.88;81.09;98706.06;10380104;28;20132;-71
2023/03/13 13:01:51;;;;;;;3.67;1.80;;;;;;;14.84;82.55;98695.72;10374243;28;20057;-71
2023/03/13 13:07:04;;;;;;;3.15;2.00;;;;;;;14.87;82.33;98683.00;10377161;28;20053;-70
2023/03/13 13:12:15;;;;;;;2.17;1.88;;;;;;;14.73;83.01;98679.34;10379320;28;20290;-70
2023/03/13 13:17:28;;;;;;;3.20;2.53;;;;;;;14.83;84.41;98666.47;10379544;28;20045;-71
2023/03/13 13:22:35;;;;;;;3.40;1.97;;;;;;;15.25;83.11;98638.00;10379390;28;20765;-70
2023/03/13 13:27:36;;;;;;;4.63;3.00;;;;;;;17.24;73.81;98635.66;10358295;28;20069;-70
2023/03/13 13:32:41;;;;;;;2.65;2.05;;;;;;;16.52;76.44;98625.38;10374935;28;20821;-73
2023/03/13 13:37:43;;;;;;;4.07;2.58;;;;;;;16.53;75.85;98594.81;10376528;28;20132;-71
2023/03/13 13:42:52;;;;;;;2.20;1.98;;;;;;;17.23;72.23;98575.66;10372841;28;20807;-71
2023/03/13 13:48:35;;;;;;;2.58;2.00;;;;;;;22.84;52.75;98551.25;10354464;28;20053;-72
2023/03/13 13:53:53;;;;;;;2.07;1.43;;;;;;;26.19;42.93;98533.84;10377686;28;20098;-71
2023/03/13 13:58:56;;;;;;;2.40;1.83;;;;;;;26.92;40.37;98505.59;10390843;28;20309;-73
2023/03/13 14:04:14;;;;;;;5.50;3.95;;;;;;;22.49;49.67;98491.81;10396436;28;20053;-72
2023/03/13 14:09:31;;;;;;;2.88;1.70;;;;;;;20.11;56.89;98455.94;10388480;28;20054;-71
2023/03/13 14:14:33;;;;;;;4.47;2.13;;;;;;;19.26;61.50;98464.88;10380612;28;20096;-71
2023/03/13 14:19:40;;;;;;;3.05;1.70;;;;;;;18.73;64.05;98456.19;10383160;28;20053;-72
2023/03/13 14:24:55;;;;;;;3.20;2.00;;;;;;;18.27;65.37;98433.13;10376377;28;20060;-73
2023/03/13 14:30:05;;;;;;;3.63;2.55;;;;;;;18.09;66.79;98428.50;10381650;28;20628;-71
2023/03/13 14:35:09;;;;;;;1.67;1.25;;;;;;;17.83;62.77;98414.13;10360533;28;20495;-76
2023/03/13 14:40:16;;;;;;;2.58;1.10;;;;;;;18.12;61.36;98398.44;10385295;28;20051;-75
2023/03/13 14:45:23;;;;;;;3.17;1.63;;;;;;;17.90;62.05;98373.72;10383990;28;20452;-71
2023/03/13 14:50:24;;;;;;;2.10;1.30;;;;;;;17.80;62.65;98349.13;10374389;28;20129;-73
2023/03/13 14:55:30;;;;;;;2.17;0.70;;;;;;;17.66;62.29;98335.75;10377322;28;20057;-71
2023/03/13 15:00:39;;;;;;;1.63;1.15;;;;;;;17.59;62.91;98326.88;10388737;28;20060;-75
2023/03/13 15:05:43;;;;;;;2.00;0.80;;;;;;;17.42;62.86;98304.25;10389019;28;20061;-73
2023/03/13 15:10:45;;;;;;;1.48;1.30;;;;;;;17.31;63.51;98303.88;10392059;28;20467;-72
2023/03/13 15:15:47;;;;;;;1.58;0.80;;;;;;;17.21;64.95;98325.03;10390824;28;21578;-72
2023/03/13 15:20:55;;;;;;;4.88;2.80;;;;;;;16.75;74.78;98406.56;10394699;28;20049;-71
2023/03/13 15:25:57;;;;;;;6.15;2.13;;;;;;;15.69;85.21;98376.75;10389563;28;20069;-75
2023/03/13 15:30:59;;;;;;;4.13;1.60;;;;;;;15.26;88.91;98374.31;10386314;28;20065;-72
2023/03/13 15:36:00;;;;;;;2.65;0.88;;;;;;;14.42;91.88;98421.56;10387806;28;20822;-72
2023/03/13 15:41:03;;;;;;;2.00;0.77;;;;;;;13.57;100.00;98377.72;10390581;28;20052;-71
2023/03/13 15:46:09;;;;;;;1.02;0.52;;;;;;;13.38;95.13;98358.59;10412286;28;20121;-73
2023/03/13 15:51:14;;;;;;;1.35;0.52;;;;;;;13.31;95.09;98335.47;10399045;28;20066;-72
2023/03/13 15:56:16;;;;;;;;;;;;;;;13.26;94.42;98312.81;10427015;28;20870;-71
2023/03/13 16:01:18;;;;;;;4.15;1.10;;;;;;;13.19;96.59;98316.41;10428669;28;19929;-75
2023/03/13 16:06:29;;;;;;;2.78;0.60;;;;;;;13.30;97.43;98347.16;10405353;28;21203;-73
2023/03/13 16:11:31;;;;;;;0.93;0.73;;;;;;;13.36;98.75;98349.94;10395141;28;20637;-71
2023/03/13 16:16:34;;;;;;;1.70;0.65;;;;;;;13.50;96.17;98344.75;10408419;28;20056;-71
2023/03/13 16:21:41;;;;;;;1.33;0.57;;;;;;;13.51;95.48;98330.34;10451799;28;20186;-70
2023/03/13 16:26:43;;;;;;;1.77;0.70;;;;;;;13.49;96.39;98348.44;10412784;28;20052;-71
2023/03/13 16:31:44;;;;;;;2.13;1.45;;;;;;;13.53;96.73;98290.94;10374032;28;20056;-70
2023/03/13 16:36:46;;;;;;;3.42;1.98;;;;;;;13.68;96.95;98309.56;10393938;28;20060;-70
2023/03/13 16:41:47;;;;;;;1.55;0.80;;;;;;;13.59;96.99;98308.88;10374524;28;21085;-71
2023/03/13 16:46:49;;;;;;;2.45;1.23;;;;;;;13.55;96.67;98313.75;10371160;28;20052;-66
2023/03/13 16:52:05;;;;;;;3.22;1.13;;;;;;;13.43;97.67;98333.97;10374066;28;20068;-70
2023/03/13 16:57:16;;;;;;;2.00;0.77;;;;;;;13.31;96.52;98338.94;10391299;28;20053;-69
2023/03/13 17:02:19;;;;;;;2.78;1.25;;;;;;;13.23;98.21;98347.09;10363220;28;20843;-70
2023/03/13 17:07:23;;;;;;;5.93;2.08;;;;;;;13.22;96.54;98329.41;10389442;28;20061;-71
2023/03/13 17:12:25;;;;;;;3.22;1.42;;;;;;;13.14;96.84;98335.69;10387750;28;21228;-70
2023/03/13 17:17:27;;;;;;;2.63;1.10;;;;;;;13.22;97.17;98332.06;10386227;28;20135;-70
2023/03/13 17:22:28;;;;;;;5.25;1.63;;;;;;;13.16;96.76;98316.78;10386419;28;20522;-70
2023/03/13 17:27:30;;;;;;;2.00;1.17;;;;;;;13.16;97.00;98311.44;10370411;28;20054;-69
2023/03/13 17:32:31;;;;;;;2.80;1.38;;;;;;;13.19;96.93;98324.44;10386210;28;20049;-70
2023/03/13 17:37:34;;;;;;;1.83;1.10;;;;;;;13.12;97.39;98291.47;10388956;28;20063;-69
2023/03/13 17:42:36;;;;;;;3.20;1.48;;;;;;;13.07;96.79;98266.13;10367165;28;20135;-71
2023/03/13 17:47:38;;;;;;;2.50;1.67;;;;;;;13.08;97.58;98259.78;10387091;28;20159;-71
2023/03/13 17:52:39;;;;;;;5.10;2.25;;;;;;;13.15;97.20;98259.03;10378546;28;20144;-72
2023/03/13 17:57:42;;;;;;;2.05;1.40;;;;;;;13.14;97.74;98254.72;10384501;28;20056;-71
2023/03/13 18:02:44;;;;;;;2.92;1.48;;;;;;;13.06;96.58;98291.22;10364771;28;20947;-71
2023/03/13 18:07:46;;;;;;;2.47;1.30;;;;;;;13.07;97.20;98298.19;10385316;28;20060;-72
2023/03/13 18:12:47;;;;;;;2.13;1.90;;;;;;;13.00;97.64;98286.63;10368531;28;20045;-71
2023/03/13 18:17:50;;;;;;;2.35;1.90;;;;;;;12.90;98.00;98270.06;10370714;28;20134;-72
2023/03/13 18:22:52;;;;;;;6.10;2.33;;;;;;;12.93;99.43;98280.38;10387974;28;20053;-71
2023/03/13 18:27:54;;;;;;;5.75;2.72;;;;;;;12.92;100.00;98270.69;10391398;28;20059;-71
2023/03/13 18:32:55;;;;;;;4.05;2.45;;;;;;;12.83;100.00;98261.13;10386377;28;20135;-71
2023/03/13 18:37:57;;;;;;;3.88;2.25;;;;;;;12.87;100.00;98249.06;10388974;28;20163;-71
2023/03/13 18:42:59;;;;;;;3.88;2.60;;;;;;;12.83;100.00;98277.16;10371351;28;20464;-72
2023/03/13 18:48:00;;;;;;;5.30;3.33;;;;;;;12.83;100.00;98269.16;10388427;28;20048;-73
2023/03/13 18:53:04;;;;;;;4.25;3.00;;;;;;;12.83;100.00;98258.47;10373122;28;20050;-72
2023/03/13 18:58:09;;;;;;;3.05;2.10;;;;;;;12.84;100.00;98252.94;10385333;28;20053;-72
2023/03/13 19:03:10;;;;;;;3.88;2.25;;;;;;;12.76;100.00;98265.56;10394752;28;20120;-71
2023/03/13 19:08:12;;;;;;;3.25;2.35;;;;;;;12.75;100.00;98287.94;10391336;28;20052;-71
2023/03/13 19:13:13;;;;;;;3.55;3.03;;;;;;;12.79;100.00;98278.53;10385443;28;20055;-69
2023/03/13 19:18:14;;;;;;;3.58;2.25;;;;;;;12.76;100.00;98252.22;10388684;28;20469;-69
2023/03/13 19:23:16;;;;;;;5.72;3.15;;;;;;;12.74;100.00;98265.75;10375308;28;20048;-71
2023/03/13 19:28:18;;;;;;;3.53;2.30;;;;;;;12.74;100.00;98297.78;10387856;28;20205;-72
2023/03/13 19:33:20;;;;;;;3.65;2.17;;;;;;;12.68;100.00;98282.50;10363666;28;20063;-71
2023/03/13 19:38:21;;;;;;;3.55;1.73;;;;;;;12.62;100.00;98214.69;10391136;28;20052;-73
2023/03/13 19:43:23;;;;;;;3.42;2.17;;;;;;;12.65;100.00;98166.25;10385150;28;20076;-72
2023/03/13 19:48:24;;;;;;;3.40;1.80;;;;;;;12.66;100.00;98199.13;10422141;28;20093;-72
2023/03/13 19:53:27;;;;;;;1.52;1.10;;;;;;;12.52;100.00;98192.78;10420627;28;20498;-70
2023/03/13 19:58:29;;;;;;;3.05;1.23;;;;;;;12.57;100.00;98158.38;10390564;28;20151;-72
2023/03/13 20:03:30;;;;;;;2.95;0.95;;;;;;;12.59;100.00;98166.19;10380089;28;20431;-74
2023/03/13 20:08:32;;;;;;;2.75;0.82;;;;;;;12.43;96.79;98137.88;10378381;28;20083;-73
2023/03/13 20:13:34;;;;;;;2.58;0.70;;;;;;;12.32;94.43;98118.66;10388107;28;20056;-72
2023/03/13 20:18:35;;;;;;;1.05;0.50;;;;;;;12.36;94.52;98119.13;10395789;28;20090;-71
2023/03/13 20:23:40;;;;;;;2.13;0.75;;;;;;;12.21;93.79;98124.50;10392163;28;20076;-72
2023/03/13 20:28:44;;;;;;;3.42;1.10;;;;;;;12.22;93.87;98117.31;10380679;28;20045;-70
2023/03/13 20:33:46;;;;;;;1.38;0.73;;;;;;;12.13;92.70;98105.91;10393553;28;20050;-70
2023/03/13 20:38:48;;;;;;;2.42;0.80;;;;;;;12.17;92.93;98121.38;10391458;28;20056;-70
2023/03/13 20:43:51;;;;;;;2.03;1.25;;;;;;;12.26;92.83;98135.41;10391220;28;20072;-71
2023/03/13 20:48:52;;;;;;;1.48;0.50;;;;;;;12.23;91.57;98119.78;10390968;28;20458;-72
2023/03/13 20:53:53;;;;;;;0.98;0.50;;;;;;;12.13;88.96;98119.25;10385845;28;20112;-73
2023/03/13 20:58:55;;;;;;;1.58;0.45;;;;;;;12.07;89.35;98103.97;10378887;28;20055;-70
2023/03/13 21:03:56;;;;;;;1.10;0.60;;;;;;;12.03;90.40;98109.69;10375398;28;20053;-72
2023/03/13 21:08:58;;;;;;;2.38;0.60;;;;;;;12.00;89.96;98120.72;10378209;28;20057;-71
2023/03/13 21:13:59;;;;;;;1.85;0.85;;;;;;;11.92;90.09;98127.97;10392122;28;22669;-70
2023/03/13 21:19:01;;;;;;;1.05;0.50;;;;;;;11.88;88.86;98151.50;10392478;28;20056;-72
2023/03/13 21:24:02;;;;;;;1.48;0.50;;;;;;;11.90;88.60;98156.66;10395850;28;20530;-71
2023/03/13 21:29:05;;;;;;;1.80;0.60;;;;;;;11.91;89.27;98152.97;10395210;28;20122;-71
2023/03/13 21:34:07;;;;;;;1.63;0.50;;;;;;;11.80;87.52;98130.25;10387268;28;20064;-70
2023/03/13 21:39:08;;;;;;;1.70;0.60;;;;;;;11.76;88.13;98163.63;10376305;28;20148;-70
2023/03/13 21:44:11;;;;;;;2.90;0.77;;;;;;;11.78;88.46;98164.25;10378083;28;21112;-71
2023/03/13 21:49:13;;;;;;;2.50;1.10;;;;;;;11.68;88.14;98165.38;10387720;28;20111;-72
2023/03/13 21:54:14;;;;;;;3.65;0.90;;;;;;;11.61;88.89;98193.75;10389189;28;20053;-71
2023/03/13 21:59:17;;;;;;;1.45;0.50;;;;;;;11.52;89.52;98202.00;10388111;28;20139;-69
2023/03/13 22:04:18;;;;;;;1.35;0.50;;;;;;;11.47;89.64;98205.22;10384826;28;20053;-71
2023/03/13 22:09:19;;;;;;;1.65;1.05;;;;;;;11.37;89.62;98199.28;10385006;28;20052;-70
2023/03/13 22:14:21;;;;;;;1.70;0.55;;;;;;;11.22;89.43;98185.94;10388485;28;21112;-74
2023/03/13 22:19:22;;;;;;;1.75;0.75;;;;;;;11.16;89.60;98171.47;10387930;28;20098;-73
2023/03/13 22:24:24;;;;;;;1.88;0.77;;;;;;;11.11;89.45;98165.88;10384638;28;20621;-72
2023/03/13 22:29:27;;;;;;;1.25;0.50;;;;;;;11.06;89.73;98161.06;10382659;28;20055;-71
2023/03/13 22:34:31;;;;;;;1.17;0.50;;;;;;;11.07;90.68;98170.72;10369341;28;20048;-69
2023/03/13 22:39:32;;;;;;;1.67;0.60;;;;;;;11.02;91.50;98196.19;10384366;28;20189;-72
2023/03/13 22:44:34;;;;;;;0.90;0.50;;;;;;;11.00;92.26;98195.56;10394323;28;20119;-71
2023/03/13 22:49:35;;;;;;;0.70;0.47;;;;;;;10.93;92.55;98182.94;10394806;28;20643;-73
2023/03/13 22:54:37;;;;;;;3.20;0.68;;;;;;;10.91;93.35;98179.66;10414156;28;20129;-71
2023/03/13 22:59:38;;;;;;;0.88;0.57;;;;;;;10.98;94.00;98187.75;10419894;28;20057;-72
2023/03/13 23:04:40;;;;;;;0.70;0.50;;;;;;;10.99;94.33;98165.47;10426374;28;20144;-68
2023/03/13 23:09:42;;;;;;;2.08;0.70;;;;;;;11.01;94.78;98167.94;10437749;28;20044;-72
2023/03/13 23:14:43;;;;;;;3.22;0.80;;;;;;;11.03;94.99;98139.28;10460892;28;20274;-70
2023/03/13 23:19:45;;;;;;;2.92;0.60;;;;;;;11.03;95.77;98150.75;10462346;28;20056;-69
2023/03/13 23:24:47;;;;;;;1.85;0.70;;;;;;;11.07;95.60;98151.25;10411927;28;20496;-67
2023/03/13 23:29:50;;;;;;;1.48;1.05;;;;;;;10.93;96.29;98147.53;10401059;28;20053;-70
2023/03/13 23:34:51;;;;;;;1.95;1.00;;;;;;;10.92;97.04;98165.31;10418416;28;20048;-68